sensor_id;sensor_type;location;lat;lon;timestamp;pressure;altitude;pressure_sealevel;temperature;humidity
58373;BME280;44177;43.356;27.672;2022-12-18T00:01:12;98803.16;;;12.60;74.98
58373;BME280;44177;43.356;27.672;2022-12-18T00:03:38;98794.84;;;12.57;75.25
58373;BME280;44177;43.356;27.672;2022-12-18T00:06:04;98803.97;;;12.61;75.42
58373;BME280;44177;43.356;27.672;2022-12-18T00:08:29;98799.53;;;12.56;75.10
58373;BME280;44177;43.356;27.672;2022-12-18T00:10:55;98806.69;;;12.61;75.03
58373;BME280;44177;43.356;27.672;2022-12-18T00:13:20;98811.38;;;12.60;74.98
58373;BME280;44177;43.356;27.672;2022-12-18T00:15:46;98815.69;;;12.61;75.31
58373;BME280;44177;43.356;27.672;2022-12-18T00:18:11;98806.69;;;12.61;74.89
58373;BME280;44177;43.356;27.672;2022-12-18T00:20:38;98807.47;;;12.61;74.90
58373;BME280;44177;43.356;27.672;2022-12-18T00:23:06;98794.94;;;12.60;75.21
58373;BME280;44177;43.356;27.672;2022-12-18T00:25:35;98788.31;;;12.61;74.86
58373;BME280;44177;43.356;27.672;2022-12-18T00:28:02;98807.84;;;12.60;75.14
58373;BME280;44177;43.356;27.672;2022-12-18T00:30:28;98816.84;;;12.60;74.94
58373;BME280;44177;43.356;27.672;2022-12-18T00:32:54;98818.78;;;12.60;75.22
58373;BME280;44177;43.356;27.672;2022-12-18T00:35:20;98814.09;;;12.60;74.91
58373;BME280;44177;43.356;27.672;2022-12-18T00:37:45;98827.78;;;12.60;74.89
58373;BME280;44177;43.356;27.672;2022-12-18T00:40:11;98827.78;;;12.60;75.04
58373;BME280;44177;43.356;27.672;2022-12-18T00:42:37;98817.09;;;12.55;74.86
58373;BME280;44177;43.356;27.672;2022-12-18T00:45:31;98818.78;;;12.60;75.10
58373;BME280;44177;43.356;27.672;2022-12-18T00:47:56;98826.19;;;12.59;74.74
58373;BME280;44177;43.356;27.672;2022-12-18T00:50:24;98828.13;;;12.59;75.14
58373;BME280;44177;43.356;27.672;2022-12-18T00:52:51;98848.06;;;12.59;74.89
58373;BME280;44177;43.356;27.672;2022-12-18T00:55:16;98839.88;;;12.59;74.88
58373;BME280;44177;43.356;27.672;2022-12-18T00:57:42;98840.69;;;12.60;74.71
58373;BME280;44177;43.356;27.672;2022-12-18T01:00:11;98840.69;;;12.60;75.08
58373;BME280;44177;43.356;27.672;2022-12-18T01:02:37;98843.41;;;12.60;74.57
58373;BME280;44177;43.356;27.672;2022-12-18T01:05:03;98830.88;;;12.59;74.92
58373;BME280;44177;43.356;27.672;2022-12-18T01:07:29;98831.66;;;12.59;74.78
58373;BME280;44177;43.356;27.672;2022-12-18T01:09:55;98834.41;;;12.59;74.55
58373;BME280;44177;43.356;27.672;2022-12-18T01:12:20;98838.72;;;12.60;74.58
58373;BME280;44177;43.356;27.672;2022-12-18T01:14:45;98824.63;;;12.58;74.95
58373;BME280;44177;43.356;27.672;2022-12-18T01:17:11;98826.19;;;12.59;74.39
58373;BME280;44177;43.356;27.672;2022-12-18T01:19:36;98830.09;;;12.58;74.68
58373;BME280;44177;43.356;27.672;2022-12-18T01:22:02;98834.41;;;12.59;74.93
58373;BME280;44177;43.356;27.672;2022-12-18T01:24:27;98830.88;;;12.59;74.47
58373;BME280;44177;43.356;27.672;2022-12-18T01:26:53;98838.31;;;12.58;74.51
58373;BME280;44177;43.356;27.672;2022-12-18T01:29:18;98832.81;;;12.58;74.52
58373;BME280;44177;43.356;27.672;2022-12-18T01:31:44;98838.63;;;12.57;74.40
58373;BME280;44177;43.356;27.672;2022-12-18T01:34:09;98843.78;;;12.58;74.45
58373;BME280;44177;43.356;27.672;2022-12-18T01:36:37;98840.22;;;12.58;74.36
58373;BME280;44177;43.356;27.672;2022-12-18T01:39:13;98853.13;;;12.57;74.30
58373;BME280;44177;43.356;27.672;2022-12-18T01:41:40;98857.47;;;12.58;74.51
58373;BME280;44177;43.356;27.672;2022-12-18T01:49:57;98860.50;;;12.57;74.68
58373;BME280;44177;43.356;27.672;2022-12-18T01:52:26;98855.03;;;12.57;74.20
58373;BME280;44177;43.356;27.672;2022-12-18T01:54:54;98853.13;;;12.57;74.57
58373;BME280;44177;43.356;27.672;2022-12-18T01:57:20;98845.22;;;12.56;74.33
58373;BME280;44177;43.356;27.672;2022-12-18T01:59:49;98855.41;;;12.55;74.48
58373;BME280;44177;43.356;27.672;2022-12-18T02:02:16;98851.06;;;12.54;74.52
58373;BME280;44177;43.356;27.672;2022-12-18T02:04:42;98857.34;;;12.55;74.61
58373;BME280;44177;43.356;27.672;2022-12-18T02:08:00;98860.50;;;12.57;74.66
58373;BME280;44177;43.356;27.672;2022-12-18T02:10:28;98867.13;;;12.56;74.56
58373;BME280;44177;43.356;27.672;2022-12-18T02:15:54;98882.75;;;12.55;74.35
58373;BME280;44177;43.356;27.672;2022-12-18T02:18:41;98864.75;;;12.54;74.66
58373;BME280;44177;43.356;27.672;2022-12-18T02:23:56;98874.56;;;12.55;74.49
58373;BME280;44177;43.356;27.672;2022-12-18T02:26:30;98873.78;;;12.55;74.73
58373;BME280;44177;43.356;27.672;2022-12-18T02:29:06;98885.50;;;12.55;74.47
58373;BME280;44177;43.356;27.672;2022-12-18T02:31:37;98888.25;;;12.55;74.74
58373;BME280;44177;43.356;27.672;2022-12-18T02:34:06;98893.94;;;12.50;74.55
58373;BME280;44177;43.356;27.672;2022-12-18T02:36:35;98896.44;;;12.55;74.69
58373;BME280;44177;43.356;27.672;2022-12-18T02:39:03;98906.59;;;12.55;74.38
58373;BME280;44177;43.356;27.672;2022-12-18T02:41:31;98907.41;;;12.55;74.46
58373;BME280;44177;43.356;27.672;2022-12-18T02:44:00;98929.28;;;12.55;74.58
58373;BME280;44177;43.356;27.672;2022-12-18T02:49:28;98942.97;;;12.55;74.58
58373;BME280;44177;43.356;27.672;2022-12-18T03:00:14;98942.19;;;12.55;74.34
58373;BME280;44177;43.356;27.672;2022-12-18T03:02:56;98950.41;;;12.55;74.30
58373;BME280;44177;43.356;27.672;2022-12-18T03:05:39;98945.72;;;12.55;74.48
58373;BME280;44177;43.356;27.672;2022-12-18T03:08:10;98942.19;;;12.55;74.47
58373;BME280;44177;43.356;27.672;2022-12-18T03:10:42;98955.06;;;12.54;74.26
58373;BME280;44177;43.356;27.672;2022-12-18T03:13:20;98968.75;;;12.54;74.49
58373;BME280;44177;43.356;27.672;2022-12-18T03:15:49;98982.41;;;12.54;74.34
58373;BME280;44177;43.356;27.672;2022-12-18T03:18:17;98989.50;;;12.55;74.64
58373;BME280;44177;43.356;27.672;2022-12-18T03:20:45;98988.72;;;12.55;74.32
58373;BME280;44177;43.356;27.672;2022-12-18T03:23:18;98985.97;;;12.55;74.61
58373;BME280;44177;43.356;27.672;2022-12-18T03:25:48;98980.81;;;12.53;74.35
58373;BME280;44177;43.356;27.672;2022-12-18T03:28:20;98981.63;;;12.54;74.38
58373;BME280;44177;43.356;27.672;2022-12-18T03:30:47;98979.69;;;12.54;74.73
58373;BME280;44177;43.356;27.672;2022-12-18T03:33:40;98971.47;;;12.54;74.51
58373;BME280;44177;43.356;27.672;2022-12-18T03:36:03;98976.94;;;12.54;74.48
58373;BME280;44177;43.356;27.672;2022-12-18T03:38:29;98976.16;;;12.54;74.63
58373;BME280;44177;43.356;27.672;2022-12-18T03:44:03;98967.59;;;12.55;74.25
58373;BME280;44177;43.356;27.672;2022-12-18T03:49:14;98957.78;;;12.54;74.49
58373;BME280;44177;43.356;27.672;2022-12-18T03:51:53;98960.53;;;12.54;74.28
58373;BME280;44177;43.356;27.672;2022-12-18T03:54:22;98962.81;;;12.52;74.12
58373;BME280;44177;43.356;27.672;2022-12-18T03:56:54;98967.03;;;12.50;74.15
58373;BME280;44177;43.356;27.672;2022-12-18T03:59:23;98987.91;;;12.54;74.21
58373;BME280;44177;43.356;27.672;2022-12-18T04:01:52;98980.25;;;12.47;74.04
58373;BME280;44177;43.356;27.672;2022-12-18T04:04:20;98998.84;;;12.54;74.02
58373;BME280;44177;43.356;27.672;2022-12-18T04:06:47;98997.25;;;12.53;74.05
58373;BME280;44177;43.356;27.672;2022-12-18T04:09:14;99011.41;;;12.55;74.07
58373;BME280;44177;43.356;27.672;2022-12-18T04:11:41;99015.25;;;12.54;74.29
58373;BME280;44177;43.356;27.672;2022-12-18T04:14:09;99023.81;;;12.53;74.35
58373;BME280;44177;43.356;27.672;2022-12-18T04:16:35;99013.53;;;12.50;74.14
58373;BME280;44177;43.356;27.672;2022-12-18T04:19:00;99024.59;;;12.53;74.34
58373;BME280;44177;43.356;27.672;2022-12-18T04:21:26;99029.28;;;12.53;74.14
58373;BME280;44177;43.356;27.672;2022-12-18T04:23:51;99033.94;;;12.52;73.98
58373;BME280;44177;43.356;27.672;2022-12-18T04:26:16;99039.44;;;12.52;74.13
58373;BME280;44177;43.356;27.672;2022-12-18T04:28:42;99053.13;;;12.52;74.36
58373;BME280;44177;43.356;27.672;2022-12-18T04:31:08;99061.31;;;12.52;74.13
58373;BME280;44177;43.356;27.672;2022-12-18T04:33:33;99055.06;;;12.52;74.36
58373;BME280;44177;43.356;27.672;2022-12-18T04:35:58;99059.72;;;12.51;74.16
58373;BME280;44177;43.356;27.672;2022-12-18T04:38:24;99063.63;;;12.50;74.12
58373;BME280;44177;43.356;27.672;2022-12-18T04:40:49;99049.59;;;12.52;74.04
58373;BME280;44177;43.356;27.672;2022-12-18T04:43:15;99055.84;;;12.52;74.07
58373;BME280;44177;43.356;27.672;2022-12-18T04:45:40;99058.16;;;12.50;74.17
58373;BME280;44177;43.356;27.672;2022-12-18T04:48:06;99059.47;;;12.44;74.07
58373;BME280;44177;43.356;27.672;2022-12-18T04:50:32;99078.88;;;12.51;74.18
58373;BME280;44177;43.356;27.672;2022-12-18T04:52:57;99090.97;;;12.50;74.10
58373;BME280;44177;43.356;27.672;2022-12-18T04:55:26;99088.13;;;12.46;74.12
58373;BME280;44177;43.356;27.672;2022-12-18T04:57:52;99100.78;;;12.51;74.09
58373;BME280;44177;43.356;27.672;2022-12-18T05:00:17;99111.72;;;12.51;74.08
58373;BME280;44177;43.356;27.672;2022-12-18T05:02:43;99110.94;;;12.51;74.37
58373;BME280;44177;43.356;27.672;2022-12-18T05:05:09;99122.66;;;12.51;74.32
58373;BME280;44177;43.356;27.672;2022-12-18T05:07:34;99123.00;;;12.50;74.26
58373;BME280;44177;43.356;27.672;2022-12-18T05:10:00;99134.78;;;12.50;74.12
58373;BME280;44177;43.356;27.672;2022-12-18T05:12:25;99133.97;;;12.50;74.38
58373;BME280;44177;43.356;27.672;2022-12-18T05:14:51;99137.50;;;12.50;73.99
58373;BME280;44177;43.356;27.672;2022-12-18T05:17:17;99147.28;;;12.51;73.94
58373;BME280;44177;43.356;27.672;2022-12-18T05:19:42;99147.63;;;12.50;74.25
58373;BME280;44177;43.356;27.672;2022-12-18T05:22:09;99155.06;;;12.49;74.14
58373;BME280;44177;43.356;27.672;2022-12-18T05:24:34;99159.72;;;12.48;74.28
58373;BME280;44177;43.356;27.672;2022-12-18T05:27:00;99160.53;;;12.49;73.95
58373;BME280;44177;43.356;27.672;2022-12-18T05:29:25;99153.47;;;12.48;73.94
58373;BME280;44177;43.356;27.672;2022-12-18T05:31:51;99131.06;;;12.34;73.92
58373;BME280;44177;43.356;27.672;2022-12-18T05:34:16;99153.47;;;12.48;73.90
58373;BME280;44177;43.356;27.672;2022-12-18T05:36:42;99161.19;;;12.46;74.27
58373;BME280;44177;43.356;27.672;2022-12-18T05:39:07;99176.13;;;12.48;73.82
58373;BME280;44177;43.356;27.672;2022-12-18T05:41:33;99178.09;;;12.48;73.92
58373;BME280;44177;43.356;27.672;2022-12-18T05:43:58;99183.56;;;12.48;74.21
58373;BME280;44177;43.356;27.672;2022-12-18T05:46:24;99188.56;;;12.46;73.84
58373;BME280;44177;43.356;27.672;2022-12-18T05:48:49;99188.56;;;12.46;74.31
58373;BME280;44177;43.356;27.672;2022-12-18T05:51:19;99199.50;;;12.46;74.34
58373;BME280;44177;43.356;27.672;2022-12-18T05:53:45;99188.56;;;12.46;73.83
58373;BME280;44177;43.356;27.672;2022-12-18T05:56:14;99190.81;;;12.44;73.92
58373;BME280;44177;43.356;27.672;2022-12-18T05:58:40;99194.03;;;12.46;73.77
58373;BME280;44177;43.356;27.672;2022-12-18T06:03:36;99188.56;;;12.46;74.13
58373;BME280;44177;43.356;27.672;2022-12-18T06:06:02;99202.59;;;12.44;73.68
58373;BME280;44177;43.356;27.672;2022-12-18T06:08:27;99202.25;;;12.46;74.18
58373;BME280;44177;43.356;27.672;2022-12-18T06:10:53;99209.66;;;12.45;73.83
58373;BME280;44177;43.356;27.672;2022-12-18T06:13:19;99208.84;;;12.45;73.71
58373;BME280;44177;43.356;27.672;2022-12-18T06:15:45;99229.13;;;12.44;73.86
58373;BME280;44177;43.356;27.672;2022-12-18T06:18:11;99233.47;;;12.45;74.01
58373;BME280;44177;43.356;27.672;2022-12-18T06:20:36;99236.22;;;12.45;73.89
58373;BME280;44177;43.356;27.672;2022-12-18T06:23:05;99234.28;;;12.45;73.67
58373;BME280;44177;43.356;27.672;2022-12-18T06:25:30;99237.81;;;12.46;73.57
58373;BME280;44177;43.356;27.672;2022-12-18T06:27:56;99237.81;;;12.46;73.65
58373;BME280;44177;43.356;27.672;2022-12-18T06:30:22;99235.09;;;12.46;73.49
58373;BME280;44177;43.356;27.672;2022-12-18T06:32:48;99238.94;;;12.45;73.51
58373;BME280;44177;43.356;27.672;2022-12-18T06:35:14;99238.94;;;12.45;73.56
58373;BME280;44177;43.356;27.672;2022-12-18T06:37:39;99238.94;;;12.45;73.52
58373;BME280;44177;43.356;27.672;2022-12-18T06:40:05;99238.94;;;12.45;73.64
58373;BME280;44177;43.356;27.672;2022-12-18T06:42:31;99237.34;;;12.44;73.56
58373;BME280;44177;43.356;27.672;2022-12-18T06:44:57;99245.56;;;12.44;73.70
58373;BME280;44177;43.356;27.672;2022-12-18T06:47:22;99253.31;;;12.42;73.32
58373;BME280;44177;43.356;27.672;2022-12-18T06:49:48;99275.88;;;12.39;73.42
58373;BME280;44177;43.356;27.672;2022-12-18T06:52:17;99291.16;;;12.40;73.57
58373;BME280;44177;43.356;27.672;2022-12-18T06:54:42;99318.84;;;12.38;73.47
58373;BME280;44177;43.356;27.672;2022-12-18T06:57:08;99337.66;;;12.40;73.68
58373;BME280;44177;43.356;27.672;2022-12-18T06:59:33;99332.06;;;12.36;73.76
58373;BME280;44177;43.356;27.672;2022-12-18T07:01:58;99348.63;;;12.40;73.42
58373;BME280;44177;43.356;27.672;2022-12-18T07:04:31;99341.25;;;12.31;73.60
58373;BME280;44177;43.356;27.672;2022-12-18T07:06:56;99359.09;;;12.38;73.78
58373;BME280;44177;43.356;27.672;2022-12-18T07:09:23;99355.22;;;12.39;73.48
58373;BME280;44177;43.356;27.672;2022-12-18T07:11:48;99365.38;;;12.38;73.60
58373;BME280;44177;43.356;27.672;2022-12-18T07:14:13;99368.09;;;12.38;73.64
58373;BME280;44177;43.356;27.672;2022-12-18T07:16:39;99372.41;;;12.39;73.30
58373;BME280;44177;43.356;27.672;2022-12-18T07:19:05;99369.69;;;12.39;73.54
58373;BME280;44177;43.356;27.672;2022-12-18T07:21:31;99375.50;;;12.38;73.68
58373;BME280;44177;43.356;27.672;2022-12-18T07:23:56;99380.97;;;12.38;73.75
58373;BME280;44177;43.356;27.672;2022-12-18T07:26:22;99371.81;;;12.34;73.52
58373;BME280;44177;43.356;27.672;2022-12-18T07:28:48;99389.19;;;12.38;73.22
58373;BME280;44177;43.356;27.672;2022-12-18T07:31:18;99393.03;;;12.37;73.40
58373;BME280;44177;43.356;27.672;2022-12-18T07:33:44;99398.50;;;12.37;73.63
58373;BME280;44177;43.356;27.672;2022-12-18T07:36:11;99391.44;;;12.36;73.62
58373;BME280;44177;43.356;27.672;2022-12-18T07:38:36;99403.19;;;12.36;73.45
58373;BME280;44177;43.356;27.672;2022-12-18T07:41:04;99405.13;;;12.36;73.26
58373;BME280;44177;43.356;27.672;2022-12-18T07:43:30;99413.31;;;12.36;73.42
58373;BME280;44177;43.356;27.672;2022-12-18T07:45:56;99420.59;;;12.31;73.29
58373;BME280;44177;43.356;27.672;2022-12-18T07:48:21;99432.81;;;12.34;73.58
58373;BME280;44177;43.356;27.672;2022-12-18T07:50:47;99440.69;;;12.36;73.29
58373;BME280;44177;43.356;27.672;2022-12-18T07:53:13;99443.41;;;12.36;73.61
58373;BME280;44177;43.356;27.672;2022-12-18T07:55:42;99434.28;;;12.31;73.39
58373;BME280;44177;43.356;27.672;2022-12-18T07:58:08;99435.22;;;12.36;73.65
58373;BME280;44177;43.356;27.672;2022-12-18T08:00:34;99425.59;;;12.29;73.47
58373;BME280;44177;43.356;27.672;2022-12-18T08:02:59;99439.91;;;12.35;73.45
58373;BME280;44177;43.356;27.672;2022-12-18T08:05:25;99440.69;;;12.36;73.48
58373;BME280;44177;43.356;27.672;2022-12-18T08:07:51;99440.69;;;12.36;73.26
58373;BME280;44177;43.356;27.672;2022-12-18T08:10:17;99444.59;;;12.35;73.27
58373;BME280;44177;43.356;27.672;2022-12-18T08:12:43;99442.16;;;12.33;73.40
58373;BME280;44177;43.356;27.672;2022-12-18T08:15:08;99450.06;;;12.35;73.18
58373;BME280;44177;43.356;27.672;2022-12-18T08:17:34;99452.78;;;12.35;73.61
58373;BME280;44177;43.356;27.672;2022-12-18T08:20:00;99464.88;;;12.34;73.52
58373;BME280;44177;43.356;27.672;2022-12-18T08:22:25;99454.72;;;12.34;73.46
58373;BME280;44177;43.356;27.672;2022-12-18T08:24:51;99453.91;;;12.34;73.38
58373;BME280;44177;43.356;27.672;2022-12-18T08:27:16;99450.56;;;12.28;73.23
58373;BME280;44177;43.356;27.672;2022-12-18T08:29:42;99469.50;;;12.33;72.98
58373;BME280;44177;43.356;27.672;2022-12-18T08:32:07;99466.00;;;12.32;73.19
58373;BME280;44177;43.356;27.672;2022-12-18T08:34:33;99476.94;;;12.32;73.25
58373;BME280;44177;43.356;27.672;2022-12-18T08:36:58;99481.59;;;12.32;73.35
58373;BME280;44177;43.356;27.672;2022-12-18T08:39:24;99483.53;;;12.31;72.99
58373;BME280;44177;43.356;27.672;2022-12-18T08:41:49;99481.13;;;12.30;73.02
58373;BME280;44177;43.356;27.672;2022-12-18T08:44:33;99480.31;;;12.29;73.06
58373;BME280;44177;43.356;27.672;2022-12-18T08:47:06;99472.78;;;12.26;73.25
58373;BME280;44177;43.356;27.672;2022-12-18T08:49:32;99479.19;;;12.30;73.43
58373;BME280;44177;43.356;27.672;2022-12-18T08:51:57;99480.31;;;12.29;73.02
58373;BME280;44177;43.356;27.672;2022-12-18T08:54:23;99469.38;;;12.29;73.40
58373;BME280;44177;43.356;27.672;2022-12-18T08:56:49;99463.09;;;12.29;73.08
58373;BME280;44177;43.356;27.672;2022-12-18T08:59:16;99461.16;;;12.29;73.29
58373;BME280;44177;43.356;27.672;2022-12-18T09:01:41;99465.50;;;12.30;73.51
58373;BME280;44177;43.356;27.672;2022-12-18T09:04:08;99458.41;;;12.29;73.12
58373;BME280;44177;43.356;27.672;2022-12-18T09:06:34;99461.50;;;12.28;73.40
58373;BME280;44177;43.356;27.672;2022-12-18T09:08:59;99465.84;;;12.29;73.26
58373;BME280;44177;43.356;27.672;2022-12-18T09:11:26;99469.38;;;12.29;73.46
58373;BME280;44177;43.356;27.672;2022-12-18T09:13:53;99475.97;;;12.28;73.08
58373;BME280;44177;43.356;27.672;2022-12-18T09:16:19;99471.31;;;12.29;73.06
58373;BME280;44177;43.356;27.672;2022-12-18T09:18:46;99472.09;;;12.29;73.00
58373;BME280;44177;43.356;27.672;2022-12-18T09:21:17;99474.03;;;12.29;73.34
58373;BME280;44177;43.356;27.672;2022-12-18T09:23:48;99475.97;;;12.28;72.93
58373;BME280;44177;43.356;27.672;2022-12-18T09:26:14;99478.69;;;12.28;73.01
58373;BME280;44177;43.356;27.672;2022-12-18T09:28:39;99483.38;;;12.28;73.10
58373;BME280;44177;43.356;27.672;2022-12-18T09:31:06;99475.34;;;12.23;73.16
58373;BME280;44177;43.356;27.672;2022-12-18T09:33:34;99485.00;;;12.29;72.99
58373;BME280;44177;43.356;27.672;2022-12-18T09:36:01;99489.66;;;12.28;73.22
58373;BME280;44177;43.356;27.672;2022-12-18T09:38:27;99477.91;;;12.28;72.83
58373;BME280;44177;43.356;27.672;2022-12-18T09:40:58;99485.28;;;12.27;72.81
58373;BME280;44177;43.356;27.672;2022-12-18T09:43:29;99482.56;;;12.27;72.86
58373;BME280;44177;43.356;27.672;2022-12-18T09:46:03;99472.44;;;12.28;73.22
58373;BME280;44177;43.356;27.672;2022-12-18T09:48:40;99477.91;;;12.28;72.69
58373;BME280;44177;43.356;27.672;2022-12-18T09:51:19;99473.56;;;12.27;73.06
58373;BME280;44177;43.356;27.672;2022-12-18T09:53:53;99475.16;;;12.28;72.78
58373;BME280;44177;43.356;27.672;2022-12-18T09:56:22;99473.22;;;12.28;73.11
58373;BME280;44177;43.356;27.672;2022-12-18T09:58:58;99482.56;;;12.27;73.03
58373;BME280;44177;43.356;27.672;2022-12-18T10:01:25;99488.03;;;12.27;72.94
58373;BME280;44177;43.356;27.672;2022-12-18T10:03:52;99477.91;;;12.28;73.11
58373;BME280;44177;43.356;27.672;2022-12-18T10:12:13;99467.47;;;12.21;73.00
58373;BME280;44177;43.356;27.672;2022-12-18T10:26:23;99465.03;;;12.28;72.94
58373;BME280;44177;43.356;27.672;2022-12-18T10:28:31;99471.63;;;12.27;72.89
58373;BME280;44177;43.356;27.672;2022-12-18T10:30:57;99461.97;;;12.21;72.91
58373;BME280;44177;43.356;27.672;2022-12-18T10:33:28;99470.03;;;12.26;73.01
58373;BME280;44177;43.356;27.672;2022-12-18T10:35:54;99463.75;;;12.26;72.58
58373;BME280;44177;43.356;27.672;2022-12-18T10:38:23;99468.44;;;12.25;72.77
58373;BME280;44177;43.356;27.672;2022-12-18T10:41:00;99478.69;;;12.28;72.60
58373;BME280;44177;43.356;27.672;2022-12-18T10:43:36;99477.25;;;12.31;72.91
58373;BME280;44177;43.356;27.672;2022-12-18T10:46:14;99474.84;;;12.29;72.82
58373;BME280;44177;43.356;27.672;2022-12-18T10:48:55;99485.78;;;12.29;72.83
58373;BME280;44177;43.356;27.672;2022-12-18T10:51:26;99493.19;;;12.29;72.73
58373;BME280;44177;43.356;27.672;2022-12-18T10:53:56;99491.25;;;12.29;72.40
58373;BME280;44177;43.356;27.672;2022-12-18T10:56:24;99488.53;;;12.29;72.87
58373;BME280;44177;43.356;27.672;2022-12-18T11:01:52;99495.13;;;12.28;72.78
58373;BME280;44177;43.356;27.672;2022-12-18T11:07:12;99493.50;;;12.27;72.58
58373;BME280;44177;43.356;27.672;2022-12-18T11:09:39;99497.41;;;12.26;72.57
58373;BME280;44177;43.356;27.672;2022-12-18T11:12:19;99493.50;;;12.27;72.53
58373;BME280;44177;43.356;27.672;2022-12-18T11:14:52;99498.19;;;12.27;72.49
58373;BME280;44177;43.356;27.672;2022-12-18T11:17:28;99501.72;;;12.27;72.69
58373;BME280;44177;43.356;27.672;2022-12-18T11:20:20;99520.06;;;12.27;72.44
58373;BME280;44177;43.356;27.672;2022-12-18T11:23:04;99516.53;;;12.26;72.49
58373;BME280;44177;43.356;27.672;2022-12-18T11:25:36;99514.94;;;12.25;72.52
58373;BME280;44177;43.356;27.672;2022-12-18T11:30:47;99513.00;;;12.26;72.64
58373;BME280;44177;43.356;27.672;2022-12-18T11:33:18;99511.38;;;12.25;72.40
58373;BME280;44177;43.356;27.672;2022-12-18T11:35:50;99505.13;;;12.24;72.81
58373;BME280;44177;43.356;27.672;2022-12-18T11:38:32;99516.06;;;12.24;72.35
58373;BME280;44177;43.356;27.672;2022-12-18T11:43:58;99502.72;;;12.23;72.61
58373;BME280;44177;43.356;27.672;2022-12-18T11:46:36;99503.50;;;12.23;72.38
58373;BME280;44177;43.356;27.672;2022-12-18T11:49:33;99516.41;;;12.23;72.44
58373;BME280;44177;43.356;27.672;2022-12-18T11:52:24;99516.41;;;12.23;72.86
58373;BME280;44177;43.356;27.672;2022-12-18T11:54:55;99510.09;;;12.22;72.85
58373;BME280;44177;43.356;27.672;2022-12-18T11:57:40;99506.56;;;12.22;72.44
58373;BME280;44177;43.356;27.672;2022-12-18T12:00:19;99509.63;;;12.20;72.79
58373;BME280;44177;43.356;27.672;2022-12-18T12:26:06;99545.84;;;12.17;72.52
58373;BME280;44177;43.356;27.672;2022-12-18T12:34:19;99554.53;;;12.19;72.32
58373;BME280;44177;43.356;27.672;2022-12-18T12:36:57;99557.28;;;12.19;72.30
58373;BME280;44177;43.356;27.672;2022-12-18T12:39:38;99571.59;;;12.16;72.40
58373;BME280;44177;43.356;27.672;2022-12-18T12:45:16;99574.31;;;12.16;72.45
58373;BME280;44177;43.356;27.672;2022-12-18T12:47:45;99581.72;;;12.15;72.63
58373;BME280;44177;43.356;27.672;2022-12-18T12:50:16;99586.88;;;12.17;72.74
58373;BME280;44177;43.356;27.672;2022-12-18T12:52:53;99585.28;;;12.16;72.47
58373;BME280;44177;43.356;27.672;2022-12-18T12:55:22;99597.81;;;12.17;72.46
58373;BME280;44177;43.356;27.672;2022-12-18T12:58:05;99596.22;;;12.16;72.37
58373;BME280;44177;43.356;27.672;2022-12-18T13:00:44;99589.13;;;12.15;72.46
58373;BME280;44177;43.356;27.672;2022-12-18T13:06:57;99593.47;;;12.16;72.69
58373;BME280;44177;43.356;27.672;2022-12-18T13:08:58;99592.66;;;12.15;72.34
58373;BME280;44177;43.356;27.672;2022-12-18T13:11:42;99594.59;;;12.15;72.53
58373;BME280;44177;43.356;27.672;2022-12-18T13:14:37;99594.59;;;12.15;72.77
58373;BME280;44177;43.356;27.672;2022-12-18T13:20:06;99589.13;;;12.15;72.37
58373;BME280;44177;43.356;27.672;2022-12-18T13:25:01;99611.00;;;12.15;72.63
58373;BME280;44177;43.356;27.672;2022-12-18T13:38:37;99616.81;;;12.13;72.38
58373;BME280;44177;43.356;27.672;2022-12-18T13:43:48;99631.63;;;12.12;72.30
58373;BME280;44177;43.356;27.672;2022-12-18T13:46:24;99641.72;;;12.12;72.53
58373;BME280;44177;43.356;27.672;2022-12-18T13:51:25;99630.00;;;12.11;72.63
58373;BME280;44177;43.356;27.672;2022-12-18T13:53:54;99634.34;;;12.12;72.58
58373;BME280;44177;43.356;27.672;2022-12-18T13:56:28;99634.34;;;12.12;72.26
58373;BME280;44177;43.356;27.672;2022-12-18T13:59:16;99646.09;;;12.13;72.35
58373;BME280;44177;43.356;27.672;2022-12-18T14:01:47;99653.00;;;12.10;72.55
58373;BME280;44177;43.356;27.672;2022-12-18T14:04:25;99653.81;;;12.11;72.33
58373;BME280;44177;43.356;27.672;2022-12-18T14:06:56;99654.63;;;12.11;72.36
58373;BME280;44177;43.356;27.672;2022-12-18T14:09:29;99657.69;;;12.10;72.55
58373;BME280;44177;43.356;27.672;2022-12-18T14:11:56;99663.16;;;12.10;72.20
58373;BME280;44177;43.356;27.672;2022-12-18T14:14:42;99661.38;;;12.05;72.26
58373;BME280;44177;43.356;27.672;2022-12-18T14:17:12;99677.94;;;12.09;72.56
58373;BME280;44177;43.356;27.672;2022-12-18T14:19:49;99682.59;;;12.08;72.21
58373;BME280;44177;43.356;27.672;2022-12-18T14:22:24;99681.81;;;12.08;72.18
58373;BME280;44177;43.356;27.672;2022-12-18T14:27:43;99689.22;;;12.07;72.42
58373;BME280;44177;43.356;27.672;2022-12-18T14:35:25;99699.00;;;12.08;72.37
58373;BME280;44177;43.356;27.672;2022-12-18T14:37:51;99702.06;;;12.07;72.26
58373;BME280;44177;43.356;27.672;2022-12-18T14:40:16;99694.69;;;12.07;72.19
58373;BME280;44177;43.356;27.672;2022-12-18T14:42:42;99694.50;;;12.04;72.53
58373;BME280;44177;43.356;27.672;2022-12-18T14:48:11;99695.81;;;12.06;72.48
58373;BME280;44177;43.356;27.672;2022-12-18T14:50:39;99701.28;;;12.06;72.17
58373;BME280;44177;43.356;27.672;2022-12-18T14:53:19;99693.22;;;12.01;72.36
58373;BME280;44177;43.356;27.672;2022-12-18T14:55:47;99701.59;;;12.05;72.14
58373;BME280;44177;43.356;27.672;2022-12-18T14:58:15;99697.88;;;12.00;72.47
58373;BME280;44177;43.356;27.672;2022-12-18T15:00:41;99714.47;;;12.04;72.30
58373;BME280;44177;43.356;27.672;2022-12-18T15:03:08;99730.88;;;12.04;72.43
58373;BME280;44177;43.356;27.672;2022-12-18T15:05:34;99723.78;;;12.03;72.15
58373;BME280;44177;43.356;27.672;2022-12-18T15:08:00;99729.25;;;12.03;72.46